Weather observations for the past three days for
Mondell Field
Imperial (Metric)
Date Time (mdt) Wind (mph) Vis. (mi.) Weather Sky Cond. Temperature (ºF) Relative Humidity Wind Chill (°F) Heat Index (°F) Pressure Precipitation (in)
Air Dwpt 6 hour altimeter (in) sea level (mb) 1 hr 3 hr 6 hr
Max. Min.
31 11:35 SW 3 10.00 Fair CLR 73.4 37.4 27% 30.1 0.0
31 11:15 Calm 10.00 Fair CLR 73.4 37.4 27% 30.1 0.0
31 10:55 Calm 10.00 Fair CLR 71.6 37.4 29% 30.1 0.0
31 10:35 Calm 10.00 Fair CLR 69.8 37.4 31% 30.1 0.0
31 10:15 S 6 10.00 Fair CLR 69.8 37.4 31% 30.1 0.0
31 09:55 Calm 10.00 Fair CLR 68 35.6 30% 30.1 0.0
31 09:35 S 6 10.00 Fair CLR 68 35.6 30% 30.1 0.0
31 09:15 SE 6 10.00 Fair CLR 68 33.8 28% 30.09 0.0
31 08:55 S 6 10.00 Fair CLR 64.4 33.8 32% 30.09 0.0
31 08:35 S 8 10.00 Fair CLR 62.6 33.8 34% 30.1 0.0
31 08:15 S 7 10.00 Fair CLR 60.8 39.2 45% 30.1 0.0
31 07:55 Calm 10.00 Fair CLR 55.4 42.8 63% 30.1 0.0
31 07:35 Calm 10.00 Fair CLR 53.6 44.6 72% 30.09 0.0
31 07:15 Calm 10.00 Fair CLR 51.8 42.8 72% 30.08 0.0
31 06:55 Calm 10.00 Fair CLR 48.2 42.8 82% 30.08 0.0
31 06:35 N 6 10.00 Fair CLR 48.2 42.8 82% 46 30.08 0.0
31 06:15 NW 3 10.00 Fair CLR 46.4 41 82% 30.07 0.0
31 05:55 SE 5 10.00 Fair CLR 50 42.8 76% 49 30.06 0.0
31 05:35 SE 6 10.00 Fair CLR 50 42.8 76% 48 30.05 0.0
31 05:15 SE 6 10.00 Fair CLR 50 42.8 76% 48 30.04 0.0
31 04:55 SE 5 10.00 Fair CLR 50 42.8 76% 49 30.04 0.0
31 04:35 E 3 10.00 Fair CLR 50 42.8 76% 30.04 0.0
31 04:15 SE 5 10.00 Fair CLR 51.8 42.8 72% 30.04 0.0
31 03:55 SE 6 10.00 Fair CLR 51.8 42.8 72% 30.04 0.0
31 03:35 S 6 10.00 Fair CLR 51.8 42.8 72% 30.04 0.0
31 03:15 S 5 10.00 Fair CLR 53.6 42.8 67% 30.03 0.0
31 02:55 S 8 10.00 Fair CLR 53.6 42.8 67% 30.03 0.0
31 02:35 SE 7 10.00 Fair CLR 55.4 42.8 63% 30.03 0.0
31 02:15 SE 6 10.00 Fair CLR 55.4 44.6 67% 30.03 0.0
31 01:55 SE 7 10.00 Fair CLR 55.4 44.6 67% 30.04 0.0
31 01:35 SE 8 10.00 Fair CLR 55.4 44.6 67% 30.04 0.0
31 01:15 SE 9 10.00 Fair CLR 55.4 44.6 67% 30.04 0.0
31 00:55 SE 13 10.00 Fair CLR 57.2 44.6 63% 30.04 0.0
31 00:35 SE 14 10.00 Fair CLR 59 44.6 59% 30.03 0.0
31 00:15 SE 6 10.00 Fair CLR 53.6 41 63% 30.03 0.0
30 23:55 Calm 10.00 Fair CLR 59 41 51% 30.02 0.0
30 23:35 Calm 10.00 Fair CLR 57.2 41 55% 30.01 0.0
30 23:15 Calm 10.00 Fair CLR 59 41 51% 30 0.0
30 22:55 E 3 10.00 Fair CLR 59 41 51% 30 0.0
30 22:35 Calm 10.00 Fair CLR 57.2 42.8 59% 30 0.0
30 22:15 Calm 10.00 Fair CLR 57.2 41 55% 30 0.0
30 21:55 Calm 10.00 Fair CLR 59 42.8 55% 29.99 0.0
30 21:35 N 6 10.00 Fair CLR 60.8 42.8 52% 29.99 0.0
30 21:15 SW 3 10.00 Fair CLR 60.8 42.8 52% 29.99 0.0
30 20:55 Calm 10.00 Fair CLR 60.8 42.8 52% 29.98 0.0
30 20:35 Calm 10.00 Fair CLR 62.6 42.8 49% 29.98 0.0
30 20:15 NW 3 10.00 Fair CLR 64.4 42.8 46% 29.96 0.0
30 19:55 N 3 10.00 Fair CLR 68 42.8 40% 29.95 0.0
30 19:35 N 6 10.00 Fair CLR 69.8 42.8 38% 29.95 0.0
30 19:15 N 9 10.00 Fair CLR 71.6 42.8 36% 29.94 0.0
30 18:55 N 14 10.00 Fair CLR 73.4 42.8 33% 29.94 0.0
30 18:35 N 14 G 20 10.00 Fair CLR 71.6 44.6 38% 29.94 0.0
30 18:15 N 13 10.00 Fair CLR 71.6 44.6 38% 29.94 0.0
30 17:55 NW 18 G 23 10.00 Fair CLR 73.4 44.6 36% 29.95 0.0
30 17:35 NW 16 10.00 Fair CLR 73.4 42.8 33% 29.94 0.0
30 17:15 N 14 G 21 10.00 Fair CLR 73.4 44.6 36% 29.94 0.0
30 16:55 N 18 G 24 10.00 Fair CLR 73.4 46.4 38% 29.93 0.0
30 16:35 NW 25 G 36 10.00 Partly Cloudy and Breezy SCT110 73.4 46.4 38% 29.94 0.0
30 16:15 NW 30 G 38 10.00 Mostly Cloudy and Windy BKN110 78.8 41 26% 78 29.91 0.0
30 15:55 W 22 G 28 10.00 Mostly Cloudy and Breezy BKN110 86 32 14% 83 29.9 0.0
30 15:35 W 16 G 29 10.00 Partly Cloudy SCT100 SCT120 86 32 14% 83 29.89 0.0
30 15:15 W 16 G 23 10.00 Partly Cloudy SCT100 86 32 14% 83 29.9 0.0
30 14:55 SW 17 G 23 10.00 Partly Cloudy SCT100 87.8 32 13% 84 29.91 0.0
30 14:35 SW 16 G 23 10.00 Partly Cloudy SCT100 87.8 32 13% 84 29.9 0.0
30 14:15 W 21 G 25 10.00 Mostly Cloudy and Breezy BKN100 86 32 14% 83 29.91 0.0
30 13:55 W 14 G 23 10.00 Mostly Cloudy BKN100 86 32 14% 83 29.91 0.0
30 13:35 S 6 10.00 Partly Cloudy SCT090 SCT110 82.4 41 23% 80 29.91 0.0
30 13:15 S 6 10.00 Partly Cloudy SCT075 82.4 42.8 25% 80 29.91 0.0
30 12:55 Calm 10.00 Fair CLR 82.4 42.8 25% 80 29.91 0.0
30 12:35 E 3 10.00 Fair CLR 80.6 42.8 26% 79 29.92 0.0
30 12:15 S 5 10.00 Fair CLR 78.8 42.8 28% 78 29.92 0.0
30 11:55 S 5 10.00 Fair CLR 78.8 42.8 28% 78 29.93 0.0
30 11:35 S 5 10.00 Fair CLR 77 42.8 30% 78 29.94 0.0
30 11:15 E 3 10.00 Fair CLR 77 44.6 32% 78 29.95 0.0
30 10:55 S 6 10.00 Fair CLR 73.4 44.6 36% 29.95 0.0
30 10:35 SW 7 10.00 Fair CLR 73.4 44.6 36% 29.95 0.0
30 10:15 S 5 10.00 Fair CLR 73.4 44.6 36% 29.95 0.0
30 09:55 S 5 10.00 Fair CLR 73.4 44.6 36% 29.94 0.0
30 09:35 S 5 10.00 Fair CLR 71.6 44.6 38% 29.94 0.0
30 09:15 W 5 10.00 Fair CLR 71.6 44.6 38% 29.95 0.0
30 08:55 SW 5 10.00 Fair CLR 69.8 44.6 40% 29.95 0.0
30 08:35 SW 5 10.00 Fair CLR 69.8 44.6 40% 29.95 0.0
30 08:15 Calm 10.00 Fair CLR 68 46.4 46% 29.94 0.0
30 07:55 Calm 10.00 Fair CLR 62.6 46.4 56% 29.95 0.0
30 07:35 E 5 10.00 Fair CLR 62.6 46.4 56% 29.94 0.0
30 07:15 Calm 10.00 Fair CLR 59 46.4 63% 29.95 0.0
30 06:55 E 6 10.00 Fair CLR 59 46.4 63% 29.94 0.0
30 06:35 E 3 10.00 Fair CLR 59 46.4 63% 29.94 0.0
30 06:15 E 6 10.00 Fair CLR 57.2 46.4 67% 29.94 0.0
30 05:55 Calm 10.00 Fair CLR 57.2 46.4 67% 29.94 0.0
30 05:35 E 3 10.00 Fair CLR 60.8 46.4 59% 29.94 0.0
30 05:15 E 6 10.00 Fair CLR 59 46.4 63% 29.94 0.0
30 04:55 E 3 10.00 Fair CLR 59 46.4 63% 29.93 0.0
30 04:35 S 3 10.00 Fair CLR 62.6 46.4 56% 29.92 0.0
30 04:15 Calm 10.00 Fair CLR 60.8 46.4 59% 29.93 0.0
30 03:55 NE 5 10.00 Fair CLR 62.6 46.4 56% 29.92 0.0
30 03:35 NE 6 10.00 Fair CLR 62.6 46.4 56% 29.93 0.0
30 03:15 Calm 10.00 Fair CLR 62.6 44.6 52% 29.93 0.0
30 02:55 NE 5 10.00 Fair CLR 62.6 44.6 52% 29.93 0.0
30 02:35 N 7 10.00 Fair CLR 62.6 44.6 52% 29.92 0.0
30 02:15 N 5 10.00 Fair CLR 62.6 44.6 52% 29.92 0.0
30 01:55 N 3 10.00 Fair CLR 64.4 44.6 49% 29.92 0.0
30 01:35 N 6 10.00 Fair CLR 62.6 44.6 52% 29.92 0.0
30 01:15 N 3 10.00 Fair CLR 64.4 44.6 49% 29.92 0.0
30 00:55 W 8 10.00 Fair CLR 64.4 44.6 49% 29.91 0.0
30 00:35 NW 6 10.00 Fair CLR 66.2 44.6 46% 29.91 0.0
30 00:15 NW 5 10.00 Fair CLR 66.2 44.6 46% 29.92 0.0
29 23:55 Calm 10.00 Fair CLR 68 42.8 40% 29.93 0.0
29 23:35 N 3 10.00 Fair CLR 68 42.8 40% 29.92 0.0
29 23:15 SW 3 10.00 Fair CLR 68 42.8 40% 29.92 0.0
29 22:55 SE 3 10.00 Fair CLR 68 41 38% 29.91 0.0
29 22:35 SE 5 10.00 Fair CLR 69.8 41 35% 29.92 0.0
29 22:15 SE 6 10.00 Fair CLR 69.8 41 35% 29.92 0.0
29 21:55 Calm 10.00 Fair CLR 68 41 38% 29.92 0.0
29 21:35 Calm 10.00 Fair CLR 71.6 41 33% 29.92 0.0
29 21:15 SW 8 10.00 Fair CLR 71.6 41 33% 29.92 0.0
29 20:55 SW 7 10.00 Fair CLR 73.4 41 31% 29.91 0.0
29 20:35 SE 8 10.00 Fair CLR 73.4 42.8 33% 29.91 0.0
29 20:15 S 8 10.00 Fair CLR 73.4 42.8 33% 29.9 0.0
29 19:55 SE 7 10.00 Partly Cloudy SCT085 73.4 48.2 41% 29.89 0.0
29 19:35 S 5 10.00 Partly Cloudy SCT085 71.6 51.8 50% 29.89 0.0
29 19:15 Calm 10.00 Partly Cloudy SCT085 73.4 50 44% 29.89 0.0
29 18:55 E 7 10.00 Fair CLR 73.4 50 44% 29.87 0.0
29 18:35 NE 8 10.00 Partly Cloudy SCT090 73.4 51.8 47% 29.88 0.0
29 18:15 N 12 G 20 10.00 Light Rain SCT036 SCT049 OVC090 71.6 55.4 57% 29.9 0.0
29 17:55 W 28 G 35 10.00 Overcast and Windy BKN090 OVC110 82.4 41 23% 80 29.9 0.0
29 17:35 W 9 G 22 10.00 Overcast SCT050 SCT070 OVC110 82.4 39.2 21% 80 29.87 0.0
29 17:15 SW 8 10.00 Mostly Cloudy SCT070 BKN100 84.2 41 22% 82 29.88 0.0
29 16:55 W 7 10.00 Partly Cloudy SCT070 SCT095 SCT120 87.8 39.2 18% 84 29.89 0.0
29 16:35 W 8 10.00 Partly Cloudy SCT110 86 41 20% 83 29.89 0.0
29 16:15 W 9 G 16 10.00 Mostly Cloudy BKN110 86 39.2 19% 83 29.9 0.0
29 15:55 W 12 10.00 Mostly Cloudy SCT095 BKN110 86 39.2 19% 83 29.9 0.0
29 15:35 W 13 10.00 Mostly Cloudy BKN110 87.8 37.4 17% 84 29.9 0.0
29 15:15 NW 14 G 20 10.00 Fair CLR 87.8 37.4 17% 84 29.9 0.0
29 14:55 W 14 G 17 10.00 Partly Cloudy SCT090 87.8 39.2 18% 84 29.9 0.0
29 14:35 W 9 G 21 10.00 Partly Cloudy SCT090 87.8 39.2 18% 84 29.91 0.0
29 14:15 W 10 G 24 10.00 Mostly Cloudy BKN090 89.6 37.4 16% 86 29.91 0.0
29 13:55 W 21 G 31 10.00 Partly Cloudy and Breezy SCT090 89.6 37.4 16% 86 29.92 0.0
29 13:35 NW 13 10.00 Fair CLR 87.8 41 19% 84 29.92 0.0
29 13:15 NW 13 G 16 10.00 Fair CLR 87.8 41 19% 84 29.92 0.0
29 12:55 W 7 G 12 10.00 Fair CLR 86 41 20% 83 29.93 0.0
29 12:35 W 5 G 16 10.00 Fair CLR 86 41 20% 83 29.94 0.0
29 12:15 W 9 G 17 10.00 Fair CLR 86 41 20% 83 29.94 0.0
29 11:55 W 8 10.00 Fair CLR 82.4 41 23% 80 29.95 0.0
29 11:35 W 8 10.00 Fair CLR 82.4 42.8 25% 80 29.95 0.0
29 11:15 W 10 10.00 Fair CLR 80.6 42.8 26% 79 29.96 0.0
29 10:55 S 7 G 17 10.00 Fair CLR 78.8 44.6 30% 79 29.97 0.0
29 10:35 S 12 10.00 Fair CLR 78.8 44.6 30% 79 29.98 0.0
29 10:15 S 9 10.00 Fair CLR 78.8 44.6 30% 79 29.98 0.0
29 09:55 SE 9 10.00 Fair CLR 78.8 44.6 30% 79 29.97 0.0
29 09:35 SE 8 10.00 Fair CLR 77 42.8 30% 78 29.98 0.0
29 09:15 SE 10 10.00 Fair CLR 77 42.8 30% 78 29.98 0.0
29 08:55 SE 7 10.00 Fair CLR 73.4 42.8 33% 29.99 0.0
29 08:35 SE 7 10.00 Fair CLR 73.4 42.8 33% 29.98 0.0
29 08:15 SE 7 10.00 Fair CLR 71.6 44.6 38% 29.98 0.0
29 07:55 E 6 10.00 Fair CLR 69.8 44.6 40% 29.99 0.0
29 07:35 SE 6 10.00 Fair CLR 68 44.6 43% 30 0.0
29 07:15 E 6 10.00 Fair CLR 62.6 46.4 56% 30 0.0
29 06:55 E 6 10.00 Fair CLR 60.8 46.4 59% 30 0.0
29 06:35 E 5 10.00 Fair CLR 60.8 44.6 55% 30 0.0
29 06:15 E 3 10.00 Fair CLR 60.8 44.6 55% 30 0.0
29 05:55 W 3 10.00 Fair CLR 60.8 44.6 55% 29.99 0.0
29 05:35 Calm 10.00 Fair CLR 62.6 44.6 52% 29.97 0.0
29 05:15 Calm 10.00 Fair CLR 64.4 44.6 49% 29.96 0.0
29 04:55 SE 5 10.00 Fair CLR 68 44.6 43% 29.96 0.0
29 04:35 E 7 10.00 Fair CLR 64.4 44.6 49% 29.95 0.0
29 04:15 Calm 10.00 Fair CLR 62.6 44.6 52% 29.96 0.0
29 03:55 Calm 10.00 Fair CLR 64.4 44.6 49% 29.97 0.0
29 03:35 N 5 10.00 Fair CLR 66.2 44.6 46% 29.97 0.0
29 03:15 N 9 10.00 Partly Cloudy SCT120 66.2 44.6 46% 29.96 0.0
29 02:55 NE 7 10.00 Fair CLR 64.4 44.6 49% 29.97 0.0
29 02:35 Calm 10.00 Fair CLR 66.2 44.6 46% 29.97 0.0
29 02:15 Calm 10.00 Fair CLR 68 42.8 40% 29.97 0.0
29 01:55 Calm 10.00 Fair CLR 68 42.8 40% 29.96 0.0
29 01:35 Calm 10.00 Fair CLR 68 42.8 40% 29.96 0.0
29 01:15 Calm 10.00 Fair CLR 69.8 41 35% 29.96 0.0
29 00:55 Calm 10.00 Fair CLR 69.8 41 35% 29.96 0.0
29 00:35 Calm 10.00 Mostly Cloudy BKN120 71.6 41 33% 29.97 0.0
29 00:15 N 5 10.00 Mostly Cloudy BKN120 69.8 42.8 38% 29.98 0.0
28 23:55 NE 6 10.00 Fair CLR 69.8 41 35% 29.98 0.0
28 23:35 Calm 10.00 Partly Cloudy SCT120 71.6 39.2 31% 29.98 0.0
28 23:15 Calm 10.00 Mostly Cloudy BKN120 71.6 39.2 31% 29.98 0.0
28 22:55 Calm 10.00 Fair CLR 73.4 39.2 29% 29.98 0.0
28 22:35 Calm 10.00 Fair CLR 77 37.4 24% 77 29.97 0.0
28 22:15 S 3 10.00 Fair CLR 77 37.4 24% 77 29.96 0.0
28 21:55 Calm 10.00 Fair CLR 77 37.4 24% 77 29.96 0.0
28 21:35 Calm 10.00 Fair CLR 77 37.4 24% 77 29.96 0.0
28 21:15 Calm 5.00 Fair with Haze CLR 77 37.4 24% 77 29.96 0.0
28 20:55 W 5 10.00 Fair CLR 78.8 37.4 23% 78 29.96 0.0
28 20:35 W 6 10.00 Fair CLR 75.2 41 29% 77 29.96 0.0
28 20:15 N 3 10.00 Fair CLR 80.6 37.4 21% 79 29.95 0.0
28 19:55 E 8 10.00 Fair CLR 82.4 37.4 20% 80 29.95 0.0
28 19:35 E 8 10.00 Fair CLR 82.4 37.4 20% 80 29.95 0.0
28 19:15 NE 10 10.00 Fair CLR 84.2 35.6 18% 81 29.95 0.0
28 18:55 NE 6 10.00 Fair CLR 86 35.6 17% 83 29.95 0.0
28 18:35 N 6 7.00 Fair CLR 86 35.6 17% 83 29.95 0.0
28 18:15 N 6 10.00 Fair CLR 87.8 33.8 15% 84 29.95 0.0
28 17:55 N 8 10.00 Fair CLR 87.8 33.8 15% 84 29.95 0.0
28 17:35 N 10 10.00 Fair CLR 87.8 33.8 15% 84 29.96 0.0
28 17:15 NW 12 10.00 Fair CLR 89.6 33.8 14% 86 29.96 0.0
28 16:55 NW 9 10.00 Fair CLR 89.6 32 13% 86 29.95 0.0
28 16:35 NW 10 10.00 Partly Cloudy SCT110 89.6 33.8 14% 86 29.96 0.0
28 16:15 NW 14 10.00 Partly Cloudy SCT120 89.6 33.8 14% 86 29.96 0.0
28 15:55 NW 12 0.00 Partly Cloudy SCT120 89.6 33.8 14% 86 29.96 0.0
28 15:35 NW 8 G 21 0.00 Partly Cloudy SCT120 91.4 33.8 13% 87 29.96 0.0
28 15:15 W 12 0.00 Partly Cloudy SCT120 91.4 33.8 13% 87 29.97 0.0
28 14:55 NW 7 0.00 Fair CLR 93.2 35.6 13% 89 29.97 0.0
28 14:35 Calm 0.00 Fair CLR 91.4 33.8 13% 87 29.98 0.0
28 14:15 S 6 0.00 Fair CLR 89.6 33.8 14% 86 29.99 0.0
28 13:55 Calm 10.00 Fair CLR 89.6 33.8 14% 86 29.99 0.0
28 13:35 NW 6 0.00 Fair CLR 89.6 33.8 14% 86 30 0.0
28 13:15 W 3 10.00 Fair CLR 89.6 35.6 15% 86 30 0.0
28 12:55 W 5 0.00 Fair CLR 87.8 41 19% 84 30.01 0.0
28 12:35 NW 5 10.00 Fair CLR 87.8 41 19% 84 30.02 0.0
28 12:15 NW 6 10.00 Fair CLR 87.8 41 19% 84 30.03 0.0
28 11:55 Calm 10.00 Fair CLR 86 42.8 22% 83 30.03 0.0
Date Time (mdt) Wind (mph) Vis. (mi.) Weather Sky Cond. Air Dwpt Max. Min. Relative Humidity Wind Chill (°F) Heat Index (°F) altimeter (in) sea level (mb) 1 hr 3 hr 6 hr
6 hour
Temperature (ºF) Pressure Precipitation (in)